sensor_id;sensor_type;location;lat;lon;timestamp;pressure;altitude;pressure_sealevel;temperature;humidity
70930;BME280;58588;48.102;19.682;2023-03-21T00:02:40;99402.75;;;4.46;100.00
70930;BME280;58588;48.102;19.682;2023-03-21T00:05:43;99403.44;;;4.48;100.00
70930;BME280;58588;48.102;19.682;2023-03-21T00:08:49;99393.06;;;4.45;100.00
70930;BME280;58588;48.102;19.682;2023-03-21T00:11:51;99395.22;;;4.59;100.00
70930;BME280;58588;48.102;19.682;2023-03-21T00:14:53;99393.63;;;4.66;100.00
70930;BME280;58588;48.102;19.682;2023-03-21T00:17:57;99391.41;;;4.62;100.00
70930;BME280;58588;48.102;19.682;2023-03-21T00:21:04;99390.66;;;4.69;100.00
70930;BME280;58588;48.102;19.682;2023-03-21T00:24:06;99388.63;;;4.81;100.00
70930;BME280;58588;48.102;19.682;2023-03-21T00:27:08;99385.19;;;4.89;100.00
70930;BME280;58588;48.102;19.682;2023-03-21T00:30:11;99388.47;;;5.00;100.00
70930;BME280;58588;48.102;19.682;2023-03-21T00:33:15;99381.50;;;5.07;100.00
70930;BME280;58588;48.102;19.682;2023-03-21T00:36:20;99380.13;;;5.21;100.00
70930;BME280;58588;48.102;19.682;2023-03-21T00:39:25;99377.72;;;5.10;100.00
70930;BME280;58588;48.102;19.682;2023-03-21T00:42:27;99367.25;;;5.17;100.00
70930;BME280;58588;48.102;19.682;2023-03-21T00:45:29;99366.94;;;5.02;100.00
70930;BME280;58588;48.102;19.682;2023-03-21T00:48:33;99368.94;;;4.82;100.00
70930;BME280;58588;48.102;19.682;2023-03-21T00:51:35;99378.44;;;4.84;100.00
70930;BME280;58588;48.102;19.682;2023-03-21T00:54:37;99370.31;;;4.68;100.00
70930;BME280;58588;48.102;19.682;2023-03-21T00:57:39;99373.13;;;4.84;100.00
70930;BME280;58588;48.102;19.682;2023-03-21T01:00:42;99374.56;;;4.97;100.00
70930;BME280;58588;48.102;19.682;2023-03-21T01:03:47;99371.88;;;4.97;100.00
70930;BME280;58588;48.102;19.682;2023-03-21T01:07:04;99364.34;;;4.92;100.00
70930;BME280;58588;48.102;19.682;2023-03-21T01:10:07;99362.03;;;4.97;100.00
70930;BME280;58588;48.102;19.682;2023-03-21T01:13:11;99367.25;;;4.81;100.00
70930;BME280;58588;48.102;19.682;2023-03-21T01:16:13;99360.59;;;4.85;100.00
70930;BME280;58588;48.102;19.682;2023-03-21T01:19:18;99358.53;;;4.61;100.00
70930;BME280;58588;48.102;19.682;2023-03-21T01:22:21;99367.75;;;4.67;100.00
70930;BME280;58588;48.102;19.682;2023-03-21T01:25:23;99363.19;;;4.77;100.00
70930;BME280;58588;48.102;19.682;2023-03-21T01:28:27;99361.06;;;4.80;100.00
70930;BME280;58588;48.102;19.682;2023-03-21T01:31:29;99355.50;;;4.74;100.00
70930;BME280;58588;48.102;19.682;2023-03-21T01:34:32;99369.22;;;4.79;100.00
70930;BME280;58588;48.102;19.682;2023-03-21T01:37:34;99362.66;;;4.73;100.00
70930;BME280;58588;48.102;19.682;2023-03-21T01:40:37;99356.09;;;4.86;100.00
70930;BME280;58588;48.102;19.682;2023-03-21T01:43:39;99355.97;;;4.69;100.00
70930;BME280;58588;48.102;19.682;2023-03-21T01:46:43;99362.81;;;4.72;100.00
70930;BME280;58588;48.102;19.682;2023-03-21T01:49:50;99359.00;;;4.74;100.00
70930;BME280;58588;48.102;19.682;2023-03-21T01:52:53;99358.00;;;4.75;100.00
70930;BME280;58588;48.102;19.682;2023-03-21T01:55:55;99360.97;;;4.72;100.00
70930;BME280;58588;48.102;19.682;2023-03-21T01:59:02;99359.91;;;4.83;100.00
70930;BME280;58588;48.102;19.682;2023-03-21T02:02:08;99349.78;;;4.87;100.00
70930;BME280;58588;48.102;19.682;2023-03-21T02:05:13;99353.56;;;4.84;100.00
70930;BME280;58588;48.102;19.682;2023-03-21T02:08:16;99351.75;;;4.84;100.00
70930;BME280;58588;48.102;19.682;2023-03-21T02:11:18;99340.22;;;4.84;100.00
70930;BME280;58588;48.102;19.682;2023-03-21T02:14:20;99344.50;;;4.95;100.00
70930;BME280;58588;48.102;19.682;2023-03-21T02:17:28;99346.00;;;4.97;100.00
70930;BME280;58588;48.102;19.682;2023-03-21T02:21:06;99359.97;;;5.09;100.00
70930;BME280;58588;48.102;19.682;2023-03-21T02:28:22;99345.56;;;5.02;100.00
70930;BME280;58588;48.102;19.682;2023-03-21T02:31:35;99346.78;;;5.07;100.00
70930;BME280;58588;48.102;19.682;2023-03-21T02:35:01;99346.00;;;5.15;100.00
70930;BME280;58588;48.102;19.682;2023-03-21T02:38:12;99349.91;;;5.03;100.00
70930;BME280;58588;48.102;19.682;2023-03-21T02:41:22;99355.63;;;5.08;100.00
70930;BME280;58588;48.102;19.682;2023-03-21T02:44:34;99355.63;;;5.08;100.00
70930;BME280;58588;48.102;19.682;2023-03-21T02:47:42;99347.94;;;5.05;100.00
70930;BME280;58588;48.102;19.682;2023-03-21T02:50:49;99352.28;;;4.88;100.00
70930;BME280;58588;48.102;19.682;2023-03-21T02:53:58;99354.34;;;4.94;100.00
70930;BME280;58588;48.102;19.682;2023-03-21T02:57:03;99356.03;;;4.95;100.00
70930;BME280;58588;48.102;19.682;2023-03-21T03:00:07;99353.91;;;4.99;100.00
70930;BME280;58588;48.102;19.682;2023-03-21T03:03:12;99363.41;;;5.01;100.00
70930;BME280;58588;48.102;19.682;2023-03-21T03:06:17;99352.56;;;5.03;100.00
70930;BME280;58588;48.102;19.682;2023-03-21T03:09:30;99354.63;;;5.09;100.00
70930;BME280;58588;48.102;19.682;2023-03-21T03:12:44;99351.22;;;5.17;100.00
70930;BME280;58588;48.102;19.682;2023-03-21T03:15:59;99346.47;;;5.28;100.00
70930;BME280;58588;48.102;19.682;2023-03-21T03:19:04;99351.31;;;5.33;100.00
70930;BME280;58588;48.102;19.682;2023-03-21T03:22:12;99353.25;;;5.23;100.00
70930;BME280;58588;48.102;19.682;2023-03-21T03:25:20;99355.78;;;5.24;100.00
70930;BME280;58588;48.102;19.682;2023-03-21T03:28:27;99357.84;;;5.13;100.00
70930;BME280;58588;48.102;19.682;2023-03-21T03:31:33;99348.53;;;5.17;100.00
70930;BME280;58588;48.102;19.682;2023-03-21T03:34:40;99354.56;;;5.19;100.00
70930;BME280;58588;48.102;19.682;2023-03-21T03:37:47;99349.78;;;5.04;100.00
70930;BME280;58588;48.102;19.682;2023-03-21T03:40:56;99355.69;;;5.34;100.00
70930;BME280;58588;48.102;19.682;2023-03-21T03:44:00;99355.16;;;5.30;100.00
70930;BME280;58588;48.102;19.682;2023-03-21T03:47:05;99358.97;;;5.28;100.00
70930;BME280;58588;48.102;19.682;2023-03-21T03:50:12;99356.81;;;5.31;100.00
70930;BME280;58588;48.102;19.682;2023-03-21T03:53:19;99360.53;;;5.38;100.00
70930;BME280;58588;48.102;19.682;2023-03-21T03:56:25;99364.81;;;5.49;100.00
70930;BME280;58588;48.102;19.682;2023-03-21T03:59:28;99371.09;;;5.40;100.00
70930;BME280;58588;48.102;19.682;2023-03-21T04:02:30;99370.09;;;5.41;100.00
70930;BME280;58588;48.102;19.682;2023-03-21T04:05:32;99367.25;;;5.43;100.00
70930;BME280;58588;48.102;19.682;2023-03-21T04:08:34;99365.06;;;5.38;100.00
70930;BME280;58588;48.102;19.682;2023-03-21T04:11:39;99360.25;;;5.42;100.00
70930;BME280;58588;48.102;19.682;2023-03-21T04:14:41;99361.78;;;5.26;100.00
70930;BME280;58588;48.102;19.682;2023-03-21T04:17:43;99355.22;;;5.21;100.00
70930;BME280;58588;48.102;19.682;2023-03-21T04:20:46;99365.09;;;5.20;100.00
70930;BME280;58588;48.102;19.682;2023-03-21T04:23:48;99360.75;;;5.01;100.00
70930;BME280;58588;48.102;19.682;2023-03-21T04:26:55;99362.28;;;5.04;100.00
70930;BME280;58588;48.102;19.682;2023-03-21T04:29:57;99370.06;;;4.97;100.00
70930;BME280;58588;48.102;19.682;2023-03-21T04:33:00;99368.38;;;4.96;100.00
70930;BME280;58588;48.102;19.682;2023-03-21T04:36:02;99344.34;;;4.96;100.00
70930;BME280;58588;48.102;19.682;2023-03-21T04:39:06;99352.44;;;5.04;100.00
70930;BME280;58588;48.102;19.682;2023-03-21T04:42:13;99356.97;;;4.86;100.00
70930;BME280;58588;48.102;19.682;2023-03-21T04:45:16;99357.63;;;4.88;100.00
70930;BME280;58588;48.102;19.682;2023-03-21T04:48:18;99351.75;;;4.84;100.00
70930;BME280;58588;48.102;19.682;2023-03-21T04:51:23;99352.13;;;4.90;100.00
70930;BME280;58588;48.102;19.682;2023-03-21T04:54:26;99361.31;;;4.87;100.00
70930;BME280;58588;48.102;19.682;2023-03-21T04:57:29;99354.50;;;4.75;100.00
70930;BME280;58588;48.102;19.682;2023-03-21T05:00:31;99356.25;;;4.84;100.00
70930;BME280;58588;48.102;19.682;2023-03-21T05:03:36;99361.53;;;4.94;100.00
70930;BME280;58588;48.102;19.682;2023-03-21T05:06:40;99357.47;;;5.07;100.00
70930;BME280;58588;48.102;19.682;2023-03-21T05:09:43;99363.25;;;5.21;100.00
70930;BME280;58588;48.102;19.682;2023-03-21T05:12:47;99362.41;;;5.20;100.00
70930;BME280;58588;48.102;19.682;2023-03-21T05:15:49;99364.41;;;5.18;100.00
70930;BME280;58588;48.102;19.682;2023-03-21T05:18:51;99360.44;;;5.22;100.00
70930;BME280;58588;48.102;19.682;2023-03-21T05:21:54;99361.94;;;5.25;100.00
70930;BME280;58588;48.102;19.682;2023-03-21T05:24:56;99366.13;;;5.27;100.00
70930;BME280;58588;48.102;19.682;2023-03-21T05:28:00;99374.91;;;5.37;100.00
70930;BME280;58588;48.102;19.682;2023-03-21T05:31:02;99368.88;;;5.35;100.00
70930;BME280;58588;48.102;19.682;2023-03-21T05:34:04;99367.72;;;5.38;100.00
70930;BME280;58588;48.102;19.682;2023-03-21T05:37:06;99371.16;;;5.48;100.00
70930;BME280;58588;48.102;19.682;2023-03-21T05:40:09;99379.59;;;5.61;100.00
70930;BME280;58588;48.102;19.682;2023-03-21T05:43:13;99364.72;;;5.59;100.00
70930;BME280;58588;48.102;19.682;2023-03-21T05:46:15;99375.97;;;5.71;100.00
70930;BME280;58588;48.102;19.682;2023-03-21T05:49:17;99387.38;;;5.81;100.00
70930;BME280;58588;48.102;19.682;2023-03-21T05:52:22;99369.47;;;5.99;100.00
70930;BME280;58588;48.102;19.682;2023-03-21T05:55:24;99377.78;;;6.22;100.00
70930;BME280;58588;48.102;19.682;2023-03-21T05:58:27;99380.19;;;6.41;100.00
70930;BME280;58588;48.102;19.682;2023-03-21T06:01:30;99376.66;;;6.41;100.00
70930;BME280;58588;48.102;19.682;2023-03-21T06:04:32;99373.88;;;6.51;100.00
70930;BME280;58588;48.102;19.682;2023-03-21T06:07:35;99363.88;;;6.69;100.00
70930;BME280;58588;48.102;19.682;2023-03-21T06:10:37;99364.88;;;6.68;100.00
70930;BME280;58588;48.102;19.682;2023-03-21T06:13:41;99370.22;;;6.68;100.00
70930;BME280;58588;48.102;19.682;2023-03-21T06:16:43;99375.81;;;6.91;100.00
70930;BME280;58588;48.102;19.682;2023-03-21T06:19:46;99377.81;;;7.05;100.00
70930;BME280;58588;48.102;19.682;2023-03-21T06:22:48;99375.16;;;7.05;100.00
70930;BME280;58588;48.102;19.682;2023-03-21T06:25:50;99372.28;;;7.07;100.00
70930;BME280;58588;48.102;19.682;2023-03-21T06:28:54;99379.34;;;7.32;100.00
70930;BME280;58588;48.102;19.682;2023-03-21T06:31:56;99370.44;;;7.48;100.00
70930;BME280;58588;48.102;19.682;2023-03-21T06:34:58;99371.09;;;7.74;100.00
70930;BME280;58588;48.102;19.682;2023-03-21T06:38:00;99370.56;;;7.87;100.00
70930;BME280;58588;48.102;19.682;2023-03-21T06:41:03;99362.56;;;8.18;100.00
70930;BME280;58588;48.102;19.682;2023-03-21T06:44:06;99367.91;;;8.26;100.00
70930;BME280;58588;48.102;19.682;2023-03-21T06:47:08;99358.31;;;8.40;100.00
70930;BME280;58588;48.102;19.682;2023-03-21T06:50:10;99362.16;;;8.46;100.00
70930;BME280;58588;48.102;19.682;2023-03-21T06:53:12;99364.78;;;8.54;100.00
70930;BME280;58588;48.102;19.682;2023-03-21T06:56:15;99365.00;;;8.75;100.00
70930;BME280;58588;48.102;19.682;2023-03-21T06:59:18;99367.69;;;8.98;100.00
70930;BME280;58588;48.102;19.682;2023-03-21T07:02:21;99363.94;;;9.30;100.00
70930;BME280;58588;48.102;19.682;2023-03-21T07:05:23;99375.00;;;9.73;100.00
70930;BME280;58588;48.102;19.682;2023-03-21T07:08:25;99359.69;;;10.03;100.00
70930;BME280;58588;48.102;19.682;2023-03-21T07:11:27;99363.78;;;10.29;100.00
70930;BME280;58588;48.102;19.682;2023-03-21T07:14:31;99367.13;;;10.45;100.00
70930;BME280;58588;48.102;19.682;2023-03-21T07:17:34;99369.78;;;10.60;100.00
70930;BME280;58588;48.102;19.682;2023-03-21T07:20:36;99360.19;;;10.72;100.00
70930;BME280;58588;48.102;19.682;2023-03-21T07:23:38;99358.72;;;10.91;100.00
70930;BME280;58588;48.102;19.682;2023-03-21T07:26:41;99360.09;;;11.23;100.00
70930;BME280;58588;48.102;19.682;2023-03-21T07:29:44;99361.44;;;11.13;100.00
70930;BME280;58588;48.102;19.682;2023-03-21T07:32:46;99360.53;;;11.27;100.00
70930;BME280;58588;48.102;19.682;2023-03-21T07:35:49;99360.31;;;11.50;100.00
70930;BME280;58588;48.102;19.682;2023-03-21T07:38:51;99371.22;;;11.63;100.00
70930;BME280;58588;48.102;19.682;2023-03-21T07:41:53;99357.28;;;11.60;100.00
70930;BME280;58588;48.102;19.682;2023-03-21T07:44:57;99365.22;;;11.68;100.00
70930;BME280;58588;48.102;19.682;2023-03-21T07:47:59;99369.69;;;11.75;100.00
70930;BME280;58588;48.102;19.682;2023-03-21T07:51:02;99367.63;;;12.05;100.00
70930;BME280;58588;48.102;19.682;2023-03-21T07:54:05;99367.25;;;12.15;100.00
70930;BME280;58588;48.102;19.682;2023-03-21T07:57:07;99367.16;;;12.37;100.00
70930;BME280;58588;48.102;19.682;2023-03-21T08:00:12;99360.59;;;12.59;100.00
70930;BME280;58588;48.102;19.682;2023-03-21T08:03:22;99367.97;;;12.78;100.00
70930;BME280;58588;48.102;19.682;2023-03-21T08:06:26;99364.63;;;12.83;100.00
70930;BME280;58588;48.102;19.682;2023-03-21T08:09:31;99361.84;;;13.24;100.00
70930;BME280;58588;48.102;19.682;2023-03-21T08:12:33;99362.69;;;13.31;100.00
70930;BME280;58588;48.102;19.682;2023-03-21T08:15:37;99360.19;;;13.70;98.90
70930;BME280;58588;48.102;19.682;2023-03-21T08:18:41;99363.09;;;13.95;97.51
70930;BME280;58588;48.102;19.682;2023-03-21T08:21:43;99360.56;;;14.00;92.41
70930;BME280;58588;48.102;19.682;2023-03-21T08:24:45;99364.31;;;14.12;90.91
70930;BME280;58588;48.102;19.682;2023-03-21T08:27:48;99364.09;;;14.13;88.76
70930;BME280;58588;48.102;19.682;2023-03-21T08:30:52;99368.22;;;14.29;87.49
70930;BME280;58588;48.102;19.682;2023-03-21T08:33:54;99357.91;;;14.64;84.60
70930;BME280;58588;48.102;19.682;2023-03-21T08:36:57;99353.38;;;14.90;84.55
70930;BME280;58588;48.102;19.682;2023-03-21T08:39:59;99357.34;;;14.94;82.40
70930;BME280;58588;48.102;19.682;2023-03-21T08:43:01;99354.28;;;15.15;80.44
70930;BME280;58588;48.102;19.682;2023-03-21T08:46:05;99356.84;;;15.35;80.40
70930;BME280;58588;48.102;19.682;2023-03-21T08:49:07;99357.84;;;15.41;76.46
70930;BME280;58588;48.102;19.682;2023-03-21T08:52:10;99361.34;;;15.79;77.30
70930;BME280;58588;48.102;19.682;2023-03-21T08:55:13;99361.88;;;16.31;73.39
70930;BME280;58588;48.102;19.682;2023-03-21T08:58:16;99355.78;;;16.48;69.51
70930;BME280;58588;48.102;19.682;2023-03-21T09:01:19;99357.09;;;16.27;69.08
70930;BME280;58588;48.102;19.682;2023-03-21T09:04:21;99357.03;;;16.70;71.18
70930;BME280;58588;48.102;19.682;2023-03-21T09:07:25;99348.44;;;16.85;70.18
70930;BME280;58588;48.102;19.682;2023-03-21T09:10:27;99345.81;;;16.78;70.20
70930;BME280;58588;48.102;19.682;2023-03-21T09:13:29;99342.94;;;16.92;70.54
70930;BME280;58588;48.102;19.682;2023-03-21T09:16:33;99356.59;;;16.85;70.81
70930;BME280;58588;48.102;19.682;2023-03-21T09:19:35;99355.25;;;16.94;69.07
70930;BME280;58588;48.102;19.682;2023-03-21T09:22:38;99350.78;;;17.42;69.63
70930;BME280;58588;48.102;19.682;2023-03-21T09:25:41;99346.69;;;17.32;67.84
70930;BME280;58588;48.102;19.682;2023-03-21T09:28:45;99342.84;;;17.40;64.95
70930;BME280;58588;48.102;19.682;2023-03-21T09:31:50;99346.22;;;17.24;65.51
70930;BME280;58588;48.102;19.682;2023-03-21T09:34:53;99341.97;;;16.86;65.95
70930;BME280;58588;48.102;19.682;2023-03-21T09:37:57;99343.66;;;16.32;66.53
70930;BME280;58588;48.102;19.682;2023-03-21T09:41:05;99339.25;;;16.13;69.25
70930;BME280;58588;48.102;19.682;2023-03-21T09:44:20;99342.03;;;17.09;69.81
70930;BME280;58588;48.102;19.682;2023-03-21T09:47:28;99335.72;;;17.51;64.71
70930;BME280;58588;48.102;19.682;2023-03-21T09:50:35;99322.78;;;17.23;63.26
70930;BME280;58588;48.102;19.682;2023-03-21T09:53:40;99331.34;;;17.08;62.53
70930;BME280;58588;48.102;19.682;2023-03-21T09:56:44;99319.75;;;17.66;60.44
70930;BME280;58588;48.102;19.682;2023-03-21T09:59:47;99327.59;;;17.98;57.91
70930;BME280;58588;48.102;19.682;2023-03-21T10:02:56;99328.09;;;17.83;58.58
70930;BME280;58588;48.102;19.682;2023-03-21T10:06:04;99332.78;;;18.23;58.46
70930;BME280;58588;48.102;19.682;2023-03-21T10:09:14;99329.34;;;18.27;58.15
70930;BME280;58588;48.102;19.682;2023-03-21T10:12:22;99319.63;;;18.83;56.46
70930;BME280;58588;48.102;19.682;2023-03-21T10:15:30;99325.09;;;18.19;56.72
70930;BME280;58588;48.102;19.682;2023-03-21T10:18:33;99315.84;;;18.73;56.47
70930;BME280;58588;48.102;19.682;2023-03-21T10:21:38;99309.97;;;18.81;55.13
70930;BME280;58588;48.102;19.682;2023-03-21T10:24:43;99314.44;;;18.58;53.23
70930;BME280;58588;48.102;19.682;2023-03-21T10:27:45;99306.81;;;19.17;50.16
70930;BME280;58588;48.102;19.682;2023-03-21T10:30:50;99301.22;;;19.91;52.02
70930;BME280;58588;48.102;19.682;2023-03-21T10:33:57;99297.22;;;20.21;50.69
70930;BME280;58588;48.102;19.682;2023-03-21T10:37:02;99292.03;;;19.47;49.17
70930;BME280;58588;48.102;19.682;2023-03-21T10:40:09;99297.78;;;19.00;49.48
70930;BME280;58588;48.102;19.682;2023-03-21T10:43:30;99305.25;;;18.76;49.31
70930;BME280;58588;48.102;19.682;2023-03-21T10:46:34;99300.56;;;17.73;49.34
70930;BME280;58588;48.102;19.682;2023-03-21T10:49:38;99298.06;;;17.71;49.50
70930;BME280;58588;48.102;19.682;2023-03-21T10:52:43;99296.38;;;17.35;50.32
70930;BME280;58588;48.102;19.682;2023-03-21T10:55:49;99297.34;;;17.41;49.43
70930;BME280;58588;48.102;19.682;2023-03-21T10:58:53;99305.00;;;16.90;50.71
70930;BME280;58588;48.102;19.682;2023-03-21T11:01:58;99294.72;;;16.62;52.57
70930;BME280;58588;48.102;19.682;2023-03-21T11:05:06;99297.31;;;16.39;53.89
70930;BME280;58588;48.102;19.682;2023-03-21T11:08:11;99288.75;;;16.35;53.82
70930;BME280;58588;48.102;19.682;2023-03-21T11:11:19;99295.97;;;16.11;52.60
70930;BME280;58588;48.102;19.682;2023-03-21T11:14:31;99289.84;;;15.97;52.13
70930;BME280;58588;48.102;19.682;2023-03-21T11:17:34;99290.91;;;16.15;52.01
70930;BME280;58588;48.102;19.682;2023-03-21T11:20:42;99288.13;;;16.03;51.54
70930;BME280;58588;48.102;19.682;2023-03-21T11:23:47;99284.47;;;16.09;51.00
70930;BME280;58588;48.102;19.682;2023-03-21T11:26:51;99280.53;;;16.23;51.08
70930;BME280;58588;48.102;19.682;2023-03-21T11:29:53;99281.00;;;16.39;51.67
70930;BME280;58588;48.102;19.682;2023-03-21T11:32:59;99278.88;;;16.41;50.92
70930;BME280;58588;48.102;19.682;2023-03-21T11:36:07;99274.69;;;16.56;50.97
70930;BME280;58588;48.102;19.682;2023-03-21T11:39:35;99274.63;;;16.45;48.23
70930;BME280;58588;48.102;19.682;2023-03-21T11:42:41;99267.44;;;16.50;48.82
70930;BME280;58588;48.102;19.682;2023-03-21T11:45:55;99260.31;;;16.68;49.75
70930;BME280;58588;48.102;19.682;2023-03-21T11:48:59;99260.50;;;16.66;49.29
70930;BME280;58588;48.102;19.682;2023-03-21T11:52:22;99256.72;;;16.85;49.94
70930;BME280;58588;48.102;19.682;2023-03-21T11:55:33;99260.31;;;17.09;51.11
70930;BME280;58588;48.102;19.682;2023-03-21T11:58:45;99263.16;;;17.15;51.86
70930;BME280;58588;48.102;19.682;2023-03-21T12:02:04;99245.78;;;17.16;51.56
70930;BME280;58588;48.102;19.682;2023-03-21T12:05:17;99251.91;;;17.11;51.21
70930;BME280;58588;48.102;19.682;2023-03-21T12:08:31;99246.44;;;16.99;51.11
70930;BME280;58588;48.102;19.682;2023-03-21T12:11:48;99249.19;;;17.11;53.07
70930;BME280;58588;48.102;19.682;2023-03-21T12:14:59;99248.09;;;17.00;53.57
70930;BME280;58588;48.102;19.682;2023-03-21T12:18:09;99250.00;;;16.70;54.80
70930;BME280;58588;48.102;19.682;2023-03-21T12:21:19;99244.56;;;16.70;55.21
70930;BME280;58588;48.102;19.682;2023-03-21T12:24:30;99244.50;;;16.76;56.36
70930;BME280;58588;48.102;19.682;2023-03-21T12:27:39;99237.06;;;16.65;58.50
70930;BME280;58588;48.102;19.682;2023-03-21T12:30:50;99246.03;;;16.54;57.43
70930;BME280;58588;48.102;19.682;2023-03-21T12:34:11;99244.28;;;16.11;58.39
70930;BME280;58588;48.102;19.682;2023-03-21T12:37:22;99236.66;;;16.20;59.06
70930;BME280;58588;48.102;19.682;2023-03-21T12:40:40;99242.16;;;15.95;59.57
70930;BME280;58588;48.102;19.682;2023-03-21T12:43:46;99235.69;;;15.96;60.63
70930;BME280;58588;48.102;19.682;2023-03-21T12:46:52;99235.16;;;16.05;61.51
70930;BME280;58588;48.102;19.682;2023-03-21T12:49:59;99231.44;;;16.18;62.57
70930;BME280;58588;48.102;19.682;2023-03-21T12:53:28;99230.00;;;16.16;62.44
70930;BME280;58588;48.102;19.682;2023-03-21T12:56:40;99227.44;;;16.21;61.43
70930;BME280;58588;48.102;19.682;2023-03-21T12:59:49;99232.66;;;16.22;62.28
70930;BME280;58588;48.102;19.682;2023-03-21T13:02:58;99221.69;;;16.11;61.86
70930;BME280;58588;48.102;19.682;2023-03-21T13:06:02;99224.69;;;16.39;62.13
70930;BME280;58588;48.102;19.682;2023-03-21T13:09:11;99219.03;;;16.22;60.32
70930;BME280;58588;48.102;19.682;2023-03-21T13:12:28;99215.84;;;16.44;59.43
70930;BME280;58588;48.102;19.682;2023-03-21T13:16:02;99211.34;;;16.91;58.11
70930;BME280;58588;48.102;19.682;2023-03-21T13:19:17;99209.72;;;17.02;56.70
70930;BME280;58588;48.102;19.682;2023-03-21T13:22:25;99201.94;;;17.41;57.44
70930;BME280;58588;48.102;19.682;2023-03-21T13:25:30;99211.41;;;17.61;57.03
70930;BME280;58588;48.102;19.682;2023-03-21T13:28:37;99202.66;;;17.83;55.86
70930;BME280;58588;48.102;19.682;2023-03-21T13:31:43;99192.06;;;18.55;54.12
70930;BME280;58588;48.102;19.682;2023-03-21T13:34:53;99194.00;;;19.56;51.41
70930;BME280;58588;48.102;19.682;2023-03-21T13:37:57;99196.28;;;20.02;50.14
70930;BME280;58588;48.102;19.682;2023-03-21T13:41:02;99195.34;;;19.92;48.06
70930;BME280;58588;48.102;19.682;2023-03-21T13:44:21;99200.47;;;19.88;48.77
70930;BME280;58588;48.102;19.682;2023-03-21T13:47:33;99192.44;;;19.43;48.82
70930;BME280;58588;48.102;19.682;2023-03-21T13:50:50;99199.03;;;19.08;49.68
70930;BME280;58588;48.102;19.682;2023-03-21T13:53:59;99196.59;;;19.29;48.79
70930;BME280;58588;48.102;19.682;2023-03-21T13:57:04;99196.66;;;19.67;48.82
70930;BME280;58588;48.102;19.682;2023-03-21T14:00:17;99187.25;;;18.91;49.33
70930;BME280;58588;48.102;19.682;2023-03-21T14:03:21;99181.78;;;18.74;49.82
70930;BME280;58588;48.102;19.682;2023-03-21T14:06:30;99174.81;;;19.00;48.91
70930;BME280;58588;48.102;19.682;2023-03-21T14:09:37;99173.53;;;19.41;48.00
70930;BME280;58588;48.102;19.682;2023-03-21T14:12:41;99170.69;;;19.14;46.51
70930;BME280;58588;48.102;19.682;2023-03-21T14:15:48;99166.16;;;19.42;47.09
70930;BME280;58588;48.102;19.682;2023-03-21T14:18:54;99166.69;;;19.77;46.12
70930;BME280;58588;48.102;19.682;2023-03-21T14:21:57;99160.94;;;19.57;45.89
70930;BME280;58588;48.102;19.682;2023-03-21T14:25:01;99162.34;;;19.43;46.96
70930;BME280;58588;48.102;19.682;2023-03-21T14:28:07;99156.66;;;19.44;46.40
70930;BME280;58588;48.102;19.682;2023-03-21T14:31:13;99169.53;;;17.91;49.69
70930;BME280;58588;48.102;19.682;2023-03-21T14:34:17;99162.50;;;18.07;50.75
70930;BME280;58588;48.102;19.682;2023-03-21T14:37:31;99166.53;;;17.29;50.39
70930;BME280;58588;48.102;19.682;2023-03-21T14:40:34;99177.75;;;17.32;50.59
70930;BME280;58588;48.102;19.682;2023-03-21T14:43:36;99164.63;;;17.53;51.77
70930;BME280;58588;48.102;19.682;2023-03-21T14:46:41;99156.06;;;17.49;51.21
70930;BME280;58588;48.102;19.682;2023-03-21T14:49:43;99161.19;;;17.57;50.64
70930;BME280;58588;48.102;19.682;2023-03-21T14:52:45;99157.13;;;17.60;51.47
70930;BME280;58588;48.102;19.682;2023-03-21T14:55:52;99155.81;;;17.62;50.66
70930;BME280;58588;48.102;19.682;2023-03-21T14:58:58;99150.88;;;18.11;50.44
70930;BME280;58588;48.102;19.682;2023-03-21T15:02:04;99155.03;;;18.31;49.15
70930;BME280;58588;48.102;19.682;2023-03-21T15:05:10;99150.44;;;18.48;48.15
70930;BME280;58588;48.102;19.682;2023-03-21T15:08:18;99146.63;;;18.78;48.12
70930;BME280;58588;48.102;19.682;2023-03-21T15:11:28;99143.84;;;20.38;44.21
70930;BME280;58588;48.102;19.682;2023-03-21T15:14:32;99141.81;;;22.14;40.79
70930;BME280;58588;48.102;19.682;2023-03-21T15:17:37;99140.81;;;23.12;39.08
70930;BME280;58588;48.102;19.682;2023-03-21T15:20:39;99142.34;;;24.34;36.39
70930;BME280;58588;48.102;19.682;2023-03-21T15:23:43;99144.50;;;25.20;34.52
70930;BME280;58588;48.102;19.682;2023-03-21T15:26:48;99145.09;;;25.41;33.33
70930;BME280;58588;48.102;19.682;2023-03-21T15:29:51;99132.00;;;24.94;32.49
70930;BME280;58588;48.102;19.682;2023-03-21T15:33:04;99133.09;;;24.14;34.20
70930;BME280;58588;48.102;19.682;2023-03-21T15:36:08;99129.03;;;24.51;32.85
70930;BME280;58588;48.102;19.682;2023-03-21T15:39:14;99128.63;;;23.48;33.38
70930;BME280;58588;48.102;19.682;2023-03-21T15:42:40;99127.81;;;22.15;36.02
70930;BME280;58588;48.102;19.682;2023-03-21T15:45:46;99132.28;;;22.62;35.45
70930;BME280;58588;48.102;19.682;2023-03-21T15:49:08;99136.34;;;22.29;35.16
70930;BME280;58588;48.102;19.682;2023-03-21T15:52:13;99139.06;;;21.56;36.52
70930;BME280;58588;48.102;19.682;2023-03-21T15:55:17;99125.91;;;21.16;36.10
70930;BME280;58588;48.102;19.682;2023-03-21T15:58:30;99133.28;;;22.15;35.81
70930;BME280;58588;48.102;19.682;2023-03-21T16:01:34;99133.81;;;21.50;36.20
70930;BME280;58588;48.102;19.682;2023-03-21T16:04:55;99130.81;;;21.14;36.77
70930;BME280;58588;48.102;19.682;2023-03-21T16:07:59;99133.63;;;20.82;37.63
70930;BME280;58588;48.102;19.682;2023-03-21T16:11:08;99137.69;;;19.76;38.81
70930;BME280;58588;48.102;19.682;2023-03-21T16:14:15;99140.22;;;18.89;40.46
70930;BME280;58588;48.102;19.682;2023-03-21T16:17:31;99130.88;;;18.85;41.78